Benton, CA (93512)

9:09 PM PDT on August 22, 2014 (GMT -0700)
Mammoth Yosemite | Change Station
CLOSE
Current Station
Airport
Location: Mammoth,
Elevation: 7129 ft
Nearby Weather Stations

Elev 7129 ft 37.62 °N, 118.84 °W | Updated 14 minutes ago

Clear
Clear
61 °F
Feels Like 61 °F
N
10
Wind Variable Wind from West

Today
High -- | Low -- °F
--% Chance of Precip.
Yesterday
High -- | Low -- °F
Precip. -- in
6:16 AM 7:38 PM
Waning Crescent, 5% visible
Pressure 30.18 in
Visibility 10.0 miles
Clouds Clear
Dew Point 34 °F
Humidity 36%
Rainfall 0.00 in
Snow Depth Not available.
UV 0 out of 12
Pollen 9.00 out of 12
Air Quality Not available.
Flu Activity Not available.
METAR KMMH 230355Z AUTO 27009KT 10SM CLR 16/01 A3018 RMK AO1

More Conditions Fewer Conditions

Pressure 30.18 in
Visibility 10.0 miles
Clouds Clear
Dew Point 34 °F
Humidity 36%
Rainfall 0.00 in
Snow Depth Not available.
UV 0 out of 12
Pollen 9.00 out of 12
Air Quality Not available.
Flu Activity Not available.
METAR KMMH 230355Z AUTO 27009KT 10SM CLR 16/01 A3018 RMK AO1

More Conditions Fewer Conditions

10-Day Weather Forecast

Almanac

Astronomy

Aug. 22, 2014 Rise Set
Actual Time 6:16 AM PDT 7:38 PM PDT
Civil Twilight 5:48 AM PDT 8:05 PM PDT
Nautical Twilight 5:15 AM PDT 8:38 PM PDT
Astronomical Twilight 4:41 AM PDT 9:12 PM PDT
Moon 3:44 AM PDT (8/22) 5:48 PM PDT (8/22)
Length of Visible Light 14h 16m
Length of Day
13h 21m
Tomorrow will be 2m 14s shorter.
Waning Crescent, 5% of the Moon is Illuminated
Aug 23
Waning Crescent
Aug 25
New
Sep 2
First Quarter
Sep 8
Full
Sep 15
Last Quarter

Today's Extremes

State Highs State Lows

Community

WunderPhotos

Upload Photos

1,746,351 photos uploaded!

WunderBlogs® & News

Nearby

Snow Depth

Station Depth Elevation
Leavitt Meadows 1 in 7200 ft
Leavitt Lake 0 in 9400 ft
Summit Meadow 1 in 9122 ft
Monitor Pass 0 in 8350 ft
Hagan's Meadow 0 in 8000 ft

Earthquake Activity

City Distance Mag. Time & Date
No recent earthquake activity has been reported nearby.
Minimum magnitude displayed is 2.5.

Coastal Water Temperatures

Place Temperature
No Stations Reporting

Nearby Weather Stations